Tiempo atmosférico en la estación meteorológica de Molina De Aragón, Guadalajara (1056 m.)



Fecha
DESCASC
Temp. máxima en grados centígrados (hora)
DESCASC
Temp. mínima en grados centígrados (hora)
DESCASC
Temp. media en grados centígrados
DESCASC
Racha de viento máxima en m/sg (hora)
DESCASC
Velocidad máxima media en intervalos de 10 minutos(hora)
DESCASC
Precipitaciones diarias en mm
DESCASC
Precipitaciones de 00:00 a 06:00 en mm
DESCASC
Precipitaciones de 06:00 a 12:00 en mm
DESCASC
Precipitaciones de 12:00 a 18:00 en mm
DESCASC
Precipitaciones de 18:00 a 24:00 en mm
DESCASC
13-10-2019 24.3 (16:40) 8.5 (08:20) 16.4 11.67 (13:20) 6.39 (14:50) 0 0 0 0 0
12-10-2019 25.9 (14:40) 13.4 (08:50) 19.6 7.22 (14:10) 3.89 (13:10) 0 0 0 0 0
11-10-2019 27 (14:40) 5.6 (08:30) 16.3 7.22 (13:30) 3.61 (13:50) 0 0 0 0 0
10-10-2019 25.7 (17:30) 4.7 (00:00) 15.2 6.39 (17:20) 2.78 (18:40) 0 0 0 0 0
09-10-2019 25.7 (16:10) 6.7 (00:00) 16.2 6.94 (18:10) 3.33 (16:00) 0 0 0 0 0
08-10-2019 28.4 (17:00) 6.3 (00:00) 17.3 6.39 (18:10) 3.06 (18:10) 0 0 0 0 0
07-10-2019 25.3 (16:40) 4.4 (00:00) 14.8 8.33 (15:30) 3.89 (14:00) 0 0 0 0 0
06-10-2019 24.3 (16:00) 3.7 (00:00) 14 7.5 (16:50) 3.33 (16:00) 0 0 0 0 0
05-10-2019 26.9 (17:20) 3.4 (00:00) 15.1 5 (13:50) 2.5 (16:50) 0 0 0 0 0
04-10-2019 27.2 (16:20) 2.8 (00:00) 15 7.22 (17:20) 3.61 (17:20) 0 0 0 0 0
03-10-2019 25 (16:10) 1.8 (00:00) 13.4 8.61 (17:40) 3.33 (17:40) 0 0 0 0 0
02-10-2019 21.3 (17:10) 8.5 (00:00) 14.9 8.61 (13:40) 3.89 (14:20) 0 0 0 0 0
01-10-2019 26.2 (15:00) 4.1 (00:00) 15.2 9.44 (19:50) 4.17 (12:50) 0 0 0 0 0
30-09-2019 28.7 (15:00) 4.2 (00:00) 16.5 8.33 (15:00) 3.06 (16:00) 0 0 0 0 0
29-09-2019 27.8 (15:50) 3.5 (00:00) 15.6 8.61 (12:50) 4.17 (13:00) 0 0 0 0 0
28-09-2019 27.6 (16:30) 3.6 (00:00) 15.6 6.39 (15:30) 3.33 (17:50) 0 0 0 0 0
27-09-2019 26.9 (15:50) 6.9 (00:00) 16.9 7.78 (15:30) 3.33 (13:10) 0 0 0 0 0
26-09-2019 26.5 (17:00) 5.9 (00:00) 16.2 7.78 (15:20) 3.61 (17:30) 0 0 0 0 0
25-09-2019 22.1 (16:40) 11.9 (00:00) 17 7.22 (15:00) 3.33 (17:20) 0 0 0 0 0
24-09-2019 25.5 (17:00) 6.7 (00:00) 16.1 8.89 (16:40) 4.44 (16:40) 0 0 0 0 0
23-09-2019 22.5 (15:50) 4.9 (00:00) 13.7 6.39 (16:50) 3.33 (15:50) 0 0 0 0 0
22-09-2019 21.5 (17:50) 12.1 (00:00) 16.8 8.89 (11:20) 4.44 (12:20) 2 0 0 2 0
21-09-2019 21.9 (16:10) 12.7 (00:00) 17.3 9.17 (16:00) 4.72 (16:00) 0 0 0 0 0
20-09-2019 25.3 (14:10) 9.1 (00:00) 17.2 8.61 (17:40) 4.44 (18:00) 0 0 0 0 0
19-09-2019 26.6 (16:50) 8.2 (00:00) 17.4 9.72 (20:20) 5 (20:20) 0 0 0 0 0
18-09-2019 24.6 (18:20) 9.1 (00:00) 16.9 6.67 (19:00) 3.61 (19:00) 0.2 0.2 0 0 0
17-09-2019 28.5 (17:50) 10.8 (00:00) 19.7 11.11 (20:50) 5 (20:50) 5.6 0 0 0 5.6
16-09-2019 24.4 (16:30) 12.9 (00:00) 18.6 9.44 (17:20) 4.72 (17:20) 0 0 0 0 0

Gráficas

Temp. máximas Temp. mínimas Temp. medias Precipitaciones Rachas de viento máximas Velocidades máximas media en intervalos de 10 minutos

Datos horarios

Fecha y hora oficial Temperatura (ºC) Velocidad del viento (km/h) Dirección del viento Racha (km/h) Dirección de racha Precipitación (mm) Presión (hPa) Tendencia (hPa) Humedad (%)
2019-10-15 23:00:00 5.3 2 Este 6 Sudeste 0 900.7 1.5 74
2019-10-15 22:00:00 7.1 3 Este 7 Norte 0 900.1 1.1 67
2019-10-15 21:00:00 8.7 0 Calma 9 Oeste 0 899.8 1.2 61
2019-10-15 20:00:00 10.7 6 Sudoeste 15 Oeste 0 899.2 0.8 53
2019-10-15 19:00:00 13.1 7 Sudoeste 19 Sudoeste 0 899 0.4 47
2019-10-15 18:00:00 14.2 9 Oeste 24 Oeste 0 898.6 -0.3 43
2019-10-15 17:00:00 14.9 11 Sudoeste 27 Oeste 0 898.4 -1 41
2019-10-15 16:00:00 14.4 9 Oeste 22 Noroeste 0 898.6 -1.2 40
2019-10-15 15:00:00 13.9 8 Oeste 23 Oeste 0 898.9 -0.8 46
2019-10-15 14:00:00 12.8 9 Oeste 21 Oeste 0 899.4 0 50
2019-10-15 13:00:00 11.3 11 Oeste 23 Noroeste 0 899.8 1 56
2019-10-15 12:00:00 9.3 9 Oeste 31 Oeste 0 899.7 1.5 64
2019-10-15 11:00:00 8.3 10 Oeste 28 Oeste 0 899.4 1.8 69
2019-10-15 10:00:00 5.6 12 Sudoeste 21 Oeste 0 898.8 1.8 79
2019-10-15 09:00:00 2.9 3 Oeste 9 Norte 0 898.2 1.7 89
2019-10-15 08:00:00 4.1 6 Oeste 19 Oeste 0 897.6 1.4 84
2019-10-15 07:00:00 4.8 6 Oeste 22 Oeste 0 897 0.6 82
2019-10-15 06:00:00 5.2 9 Oeste 22 Oeste 0 896.5 0.3 81
2019-10-15 05:00:00 5.1 13 Oeste 23 Sudoeste 0 896.2 0.2 81
2019-10-15 04:00:00 5.1 7 Oeste 16 Oeste 0 896.4 0.5 81
2019-10-15 03:00:00 6.2 9 Oeste 25 Oeste 0 896.2 0.7 77
2019-10-15 02:00:00 7 10 Oeste 24 Sudoeste 0 896 0.7 83
2019-10-15 01:00:00 7.3 4 Sudoeste 18 Oeste 0 895.9 1.2 87
2019-10-15 00:00:00 8 10 Oeste 21 Oeste 0 895.5 1.2 87
2019-10-14 23:00:00 8.4 7 Sudoeste 20 Oeste 0 895.3 2.6 85
2019-10-14 22:00:00 9 15 Oeste 38 Sudoeste 0.6 894.7 2.5 86
2019-10-14 21:00:00 11.8 19 Oeste 47 Oeste 0 894.3 2.4 70
2019-10-14 20:00:00 13.9 10 Oeste 41 Sudoeste 0 892.7 0.6 55
2019-10-14 19:00:00 15.4 14 Sudoeste 40 Oeste 0 892.2 -0.6 56
2019-10-14 18:00:00 16.3 13 Sudoeste 36 Sudoeste 0 891.9 0 60
2019-10-14 17:00:00 15.5 12 Sudoeste 33 Sur 0 892.1 -0.6 72
2019-10-14 16:00:00 13.8 13 Oeste 47 Sudoeste 0 892.8 -0.6 80
2019-10-14 15:00:00 17.2 14 Sudoeste 38 Sur 0 891.9 -2.5 71
2019-10-14 14:00:00 16.4 13 Sur 48 Sur 0 892.7 -2.4 74
2019-10-14 13:00:00 17.2 19 Sur 38 Sur 0 893.4 -1.4 70
2019-10-14 12:00:00 16.3 22 Sur 39 Sur 0.2 894.4 1.5 72
2019-10-14 11:00:00 14 18 Sur 43 Sur 1.6 895.1 2.4 82
2019-10-14 10:00:00 16.7 15 Sur 30 Sudoeste 0.2 894.8 2.3 68
2019-10-14 09:00:00 18.2 13 Sur 31 Sur 0 892.9 -0.2 50
2019-10-14 08:00:00 18.3 14 Sur 33 Sur 0 892.7 -0.3 48
2019-10-14 07:00:00 18.4 11 Sudeste 32 Sur 0 892.5 -1.4 49
2019-10-14 06:00:00 17.6 7 Sudeste 25 Sur 0 893.1 -1.9 52
2019-10-14 05:00:00 15.6 11 Sur 28 Sur 0 893 -2.7 59
2019-10-14 04:00:00 14.1 6 Este 16 Este 0 893.9 -2.4 67
2019-10-14 03:00:00 7.7 5 Este 7 Sudeste 0 895 -1.8 68
2019-10-14 02:00:00 8.2 0 Calma 3 Este 0 895.7 -1.3 63
2019-10-14 01:00:00 9.5 0 Calma 4 Sur 0 896.3 -0.8 59
2019-10-14 00:00:00 11.2 2 Sudoeste 10 Este 0 896.8 0.1 53
2019-10-13 23:00:00 11.3 3 Este 9 Este 0 897 0.6 51
2019-10-13 22:00:00 12.7 3 Este 5 Este 0 897.1 0.9 45
2019-10-13 21:00:00 16.1 0 Calma 7 Sudoeste 0 896.7 0.4 37
2019-10-13 20:00:00 19.8 3 Sudoeste 25 Sur 0 896.4 0.1 31
2019-10-13 19:00:00 22.2 6 Sudoeste 28 Sur 0 896.2 -0.3 27
2019-10-13 18:00:00 23.5 13 Sudoeste 33 Sur 0 896.3 -0.3 25
2019-10-13 17:00:00 24.2 12 Sudoeste 34 Sur 0 896.3 -1.2 29
2019-10-13 16:00:00 24 13 Sudoeste 39 Sur 0 896.5 -1.4 30
2019-10-13 15:00:00 23.7 14 Sudoeste 39 Sur 0 896.6 -1.6 35
2019-10-13 14:00:00 22.8 12 Sudoeste 42 Sur 0 897.5 -0.4 44
2019-10-13 13:00:00 21.6 12 Sudoeste 31 Sudoeste 0 897.9 0.4 51
2019-10-13 12:00:00 20.5 10 Sudoeste 27 Sur 0 898.2 1.3 57
2019-10-13 11:00:00 18.6 6 Oeste 21 Sur 0 897.9 1.2 63
2019-10-13 10:00:00 13 3 Sur 10 Sur 0 897.5 0.9 80
2019-10-13 09:00:00 9 3 Sudoeste 10 Norte 0 896.9 0.3 90
2019-10-13 08:00:00 8.6 3 Sur 9 Sur 0 896.7 -0.3 88
2019-10-13 07:00:00 9.1 0 Calma 8 Oeste 0 896.6 -1 86
2019-10-13 06:00:00 9.5 0 Calma 8 Este 0 896.6 -1.7 83
2019-10-13 05:00:00 10.3 0 Calma 9 Este 0 897 -1.7 80
2019-10-13 04:00:00 10.3 2 Este 5 Sudeste 0 897.6 -1.5 75
2019-10-13 03:00:00 12.3 2 Nordeste 8 Este 0 898.3 -1.4 70
2019-10-13 02:00:00 14.3 3 Sudeste 18 Sudoeste 0 898.7 0.2 67
2019-10-13 01:00:00 15.9 6 Oeste 31 Sudoeste 0 899.1 1.4 63
2019-10-13 00:00:00 16.5 12 Oeste 23 Oeste 0 899.7 2.3 58
2019-10-12 23:00:00 14.2 2 Este 9 Este 0 898.5 1.4 51
2019-10-12 22:00:00 16.2 2 Nordeste 9 Este 0 897.7 0.4 46
2019-10-12 21:00:00 19.4 3 Este 13 Sur 0 897.4 0 38
2019-10-12 20:00:00 20.9 3 Sur 22 Sudoeste 0 897.1 -0.4 35
2019-10-12 19:00:00 22.1 9 Sudoeste 26 Oeste 0 897.3 -0.2 34
2019-10-12 18:00:00 24.1 12 Sudoeste 25 Oeste 0 897.4 -0.4 30
2019-10-12 17:00:00 24.1 10 Sudoeste 23 Sur 0 897.5 -1.2 30
2019-10-12 16:00:00 24.5 10 Sudoeste 24 Sudeste 0 897.5 -1.8 30
2019-10-12 15:00:00 25.2 5 Sudoeste 26 Sur 0 897.8 -1.9 30
2019-10-12 14:00:00 24.5 6 Sur 24 Sur 0 898.7 -0.9 36
2019-10-12 13:00:00 22.9 9 Sur 21 Sur 0 899.3 0 42
2019-10-12 12:00:00 19.9 5 Noroeste 11 Oeste 0 899.7 0.9 56
2019-10-12 11:00:00 16.4 3 Sudoeste 5 Sudoeste 0 899.6 0.9 69
2019-10-12 10:00:00 14.5 0 Calma 5 Sudeste 0 899.3 0.6 76
2019-10-12 09:00:00 13.4 0 Calma 5 Sudeste 0 898.8 0 76
2019-10-12 08:00:00 13.6 0 Calma 6 Este 0 898.7 -0.2 76
2019-10-12 07:00:00 13.6 3 Este 6 Este 0 898.7 -0.5 73
2019-10-12 06:00:00 14.4 3 Este 7 Este 0 898.8 -0.4 70
2019-10-12 05:00:00 15.4 0 Calma 8 Sudeste 0 898.9 -0.4 67
2019-10-12 04:00:00 15.6 2 Este 6 Sudeste 0 899.2 -0.4 66
2019-10-12 03:00:00 16.3 0 Calma 7 Sudoeste 0 899.2 -0.9 64
2019-10-12 02:00:00 16.9 2 Este 15 Sur 0 899.3 -0.8 61
2019-10-12 01:00:00 16.4 2 Este 6 Sur 0 899.6 0 62
2019-10-12 00:00:00 16.4 2 Oeste 5 Oeste 0 900.1 0.9 61
2019-10-11 23:00:00 17.1 0 Calma 8 Oeste 0 900.1 1.2 58
2019-10-11 22:00:00 18.1 4 Sudoeste 16 Sur 0 899.6 1 54
2019-10-11 21:00:00 18.4 0 Calma 5 Este 0 899.2 0.6 47
2019-10-11 20:00:00 21.3 4 Sudoeste 12 Sudoeste 0 898.9 0 39
2019-10-11 19:00:00 24 8 Oeste 19 Oeste 0 898.6 -0.6 38
2019-10-11 18:00:00 25.5 9 Oeste 22 Oeste 0 898.6 -1.2 37
2019-10-11 17:00:00 26.1 9 Oeste 25 Oeste 0 898.9 -1.7 36
2019-10-11 16:00:00 26.6 12 Oeste 22 Oeste 0 899.2 -2.3 34
2019-10-11 15:00:00 26.6 9 Sudoeste 26 Sudoeste 0 899.8 -2.2 36
2019-10-11 14:00:00 26.2 10 Sudoeste 26 Oeste 0 900.6 -1.8 39
2019-10-11 13:00:00 23.9 5 Oeste 10 Oeste 0 901.5 -0.7 49
2019-10-11 12:00:00 19.3 3 Sudoeste 8 Sudoeste 0 902 0.1 60
2019-10-11 11:00:00 14 3 Oeste 4 Sudoeste 0 902.4 0.8 72
2019-10-11 10:00:00 9.7 2 Sur 4 Este 0 902.2 0.8 87
2019-10-11 09:00:00 6 0 Calma 3 Sudeste 0 901.9 0.5 92
2019-10-11 08:00:00 5.8 0 Calma 3 Este 0 901.6 0.2 90
2019-10-11 07:00:00 6.2 0 Calma 3 Nordeste 0 901.4 0 89
2019-10-11 06:00:00 6.5 0 Calma 3 Este 0 901.4 -0.3 88
2019-10-11 05:00:00 7 2 Sur 5 Sudeste 0 901.4 -0.3 87
2019-10-11 04:00:00 7.4 0 Calma 3 Este 0 901.4 -0.4 85
2019-10-11 03:00:00 8.2 0 Calma 4 Sur 0 901.7 -0.1 82
2019-10-11 02:00:00 9.1 2 Este 4 Sudeste 0 901.7 0.1 81
2019-10-11 01:00:00 10.1 2 Este 5 Sudeste 0 901.8 0.6 76
2019-10-11 00:00:00 11.3 0 Calma 6 Sur 0 901.8 1 75
2019-10-10 23:00:00 12.6 3 Este 6 Este 0 901.6 1.1 70
2019-10-10 22:00:00 14.6 0 Calma 6 Sudeste 0 901.2 1.1 65
2019-10-10 21:00:00 16.9 0 Calma 8 Este 0 900.8 0.9 59
2019-10-10 20:00:00 19.7 2 Nordeste 15 Noroeste 0 900.5 0.8 52
2019-10-10 19:00:00 23 6 Norte 18 Norte 0 900.1 0.2 45
2019-10-10 18:00:00 25 9 Oeste 23 Oeste 0 899.9 -0.6 40
2019-10-10 17:00:00 25.5 9 Oeste 19 Noroeste 0 899.7 -1.6 35
2019-10-10 16:00:00 24.4 4 Este 17 Oeste 0 899.9 -2 43
2019-10-10 15:00:00 23.9 5 Noroeste 13 Noroeste 0 900.5 -1.8 47
2019-10-10 14:00:00 22 4 Noroeste 10 Sudeste 0 901.3 -1.4 52
2019-10-10 13:00:00 20.2 3 Sudoeste 9 Sur 0 901.9 -0.4 59
2019-10-10 12:00:00 17.5 2 Noroeste 12 Noroeste 0 902.3 0.5 60
2019-10-10 11:00:00 14.1 6 Norte 15 Norte 0 902.7 1 62
2019-10-10 10:00:00 8.5 2 Sudoeste 5 Este 0 902.3 1 80
2019-10-10 09:00:00 5 3 Este 5 Sudeste 0 901.8 0.8 88
2019-10-10 08:00:00 4.9 2 Este 5 Sudeste 0 901.7 0.6 86
2019-10-10 07:00:00 5.2 0 Calma 8 Sudeste 0 901.3 0 85
2019-10-10 06:00:00 5.6 2 Este 4 Sudeste 0 901 -0.4 85
2019-10-10 05:00:00 6.2 2 Este 6 Sudeste 0 901.1 -0.5 83
2019-10-10 04:00:00 6.9 0 Calma 7 Sudeste 0 901.3 -0.4 82
2019-10-10 03:00:00 7.8 2 Este 5 Sudeste 0 901.4 -0.1 79
2019-10-10 02:00:00 8.8 3 Este 9 Este 0 901.6 0.4 77
2019-10-10 01:00:00 9.7 6 Este 13 Sudeste 0 901.7 1.3 74
2019-10-10 00:00:00 10.8 8 Este 15 Sudeste 0 901.5 1.8 72
2019-10-09 23:00:00 12 5 Este 16 Sudeste 0 901.2 2.3 69
2019-10-09 22:00:00 13.6 5 Este 14 Sur 0 900.4 1.9 68
2019-10-09 21:00:00 15.7 5 Nordeste 11 Norte 0 899.7 1.8 64
2019-10-09 20:00:00 18.4 2 Norte 11 Nordeste 0 898.9 0.9 58
2019-10-09 19:00:00 21.2 4 Nordeste 25 Nordeste 0 898.5 0.4 51
2019-10-09 18:00:00 24.7 6 Norte 19 Norte 0 897.9 -0.3 43
2019-10-09 17:00:00 25.6 9 Norte 19 Nordeste 0 898 -0.8 43
2019-10-09 16:00:00 25.5 12 Norte 23 Norte 0 898.1 -1.1 43
2019-10-09 15:00:00 24.9 4 Norte 19 Noroeste 0 898.2 -1.3 44
2019-10-09 14:00:00 24 6 Norte 17 Norte 0 898.8 -0.7 47
2019-10-09 13:00:00 23.4 6 Nordeste 18 Norte 0 899.2 -0.6 51
2019-10-09 12:00:00 20.8 5 Oeste 10 Oeste 0 899.5 -0.1 54
2019-10-09 11:00:00 17.4 3 Sudeste 8 Este 0 899.5 0.5 60
2019-10-09 10:00:00 12.2 5 Este 10 Este 0 899.8 1.3 70
2019-10-09 09:00:00 7.4 2 Este 6 Sur 0 899.6 1.3 84
2019-10-09 08:00:00 6.9 2 Noroeste 6 Sudeste 0 899 0.8 85
2019-10-09 07:00:00 7.4 4 Este 7 Este 0 898.5 0 81
2019-10-09 06:00:00 7.7 3 Sudeste 5 Este 0 898.3 -0.4 81
2019-10-09 05:00:00 8.2 2 Este 4 Sudeste 0 898.2 -0.7 77
2019-10-09 04:00:00 8.8 2 Este 4 Este 0 898.5 -0.7 75
2019-10-09 03:00:00 9.5 0 Calma 3 Este 0 898.7 -0.7 73
2019-10-09 02:00:00 10.3 0 Calma 3 Este 0 898.9 -0.3 69
2019-10-09 01:00:00 11.4 3 Este 5 Sudeste 0 899.2 0.3 65
2019-10-09 00:00:00 12.4 3 Este 5 Sudeste 0 899.4 0.7 62
2019-10-08 23:00:00 13.9 2 Este 6 Sudeste 0 899.2 1.1 57
2019-10-08 22:00:00 16.2 2 Nordeste 6 Sudeste 0 898.9 0.8 50
2019-10-08 21:00:00 19.5 2 Este 14 Oeste 0 898.7 0.7 43
2019-10-08 20:00:00 22.6 8 Oeste 17 Oeste 0 898.1 0 37
2019-10-08 19:00:00 25.3 9 Oeste 23 Oeste 0 898.1 -0.1 32
2019-10-08 18:00:00 27.4 9 Oeste 19 Oeste 0 898 -0.7 31
2019-10-08 17:00:00 28.4 8 Oeste 18 Oeste 0 898.1 -1.4 31
2019-10-08 16:00:00 28.2 6 Oeste 19 Oeste 0 898.2 -2.2 29
2019-10-08 15:00:00 27.4 7 Oeste 21 Oeste 0 898.7 -2.3 34
2019-10-08 14:00:00 26.6 4 Oeste 11 Sudoeste 0 899.5 -1.9 37
2019-10-08 13:00:00 24.2 2 Oeste 7 Oeste 0 900.4 -1 38
2019-10-08 12:00:00 20 3 Oeste 5 Oeste 0 901 -0.2 53
2019-10-08 11:00:00 15.1 2 Sudoeste 7 Sur 0 901.4 0.6 62
2019-10-08 10:00:00 11.1 2 Sur 4 Este 0 901.4 0.6 74
2019-10-08 09:00:00 6.7 2 Sudeste 5 Este 0 901.2 0.5 87
2019-10-08 08:00:00 6.4 0 Calma 3 Sudeste 0 900.8 0 87
2019-10-08 07:00:00 6.9 2 Este 6 Este 0 900.8 -0.4 85
2019-10-08 06:00:00 7.6 4 Sudeste 8 Sudeste 0 900.7 -0.6 82
2019-10-08 05:00:00 8.4 3 Este 8 Sudeste 0 900.8 -0.6 81
2019-10-08 04:00:00 8.8 0 Calma 7 Sudeste 0 901.2 -0.2 79
2019-10-08 03:00:00 9.7 5 Este 11 Sudeste 0 901.3 0.1 76
2019-10-08 02:00:00 10.5 2 Este 14 Este 0 901.4 0.3 74
2019-10-08 01:00:00 11.6 2 Sur 8 Sudeste 0 901.4 0.6 70
2019-10-08 00:00:00 13.2 4 Este 10 Sudeste 0 901.2 0.7 67
2019-10-07 23:00:00 14.1 4 Norte 11 Noroeste 0 901.1 1.2 65
2019-10-07 22:00:00 15 4 Oeste 7 Sudeste 0 900.8 1 61
2019-10-07 21:00:00 17.3 2 Norte 8 Norte 0 900.5 1.2 53
2019-10-07 20:00:00 20.1 3 Norte 18 Norte 0 899.9 0.5 47
2019-10-07 19:00:00 23 11 Norte 24 Noroeste 0 899.8 0.1 40
2019-10-07 18:00:00 24.7 12 Norte 29 Noroeste 0 899.3 -0.6 36
2019-10-07 17:00:00 25 10 Noroeste 29 Norte 0 899.4 -0.9 33
2019-10-07 16:00:00 25 12 Norte 30 Norte 0 899.7 -0.8 31
2019-10-07 15:00:00 23.8 9 Noroeste 23 Norte 0 899.9 -1 32
2019-10-07 14:00:00 23.2 14 Noroeste 28 Noroeste 0 900.3 -0.7 33
2019-10-07 13:00:00 22.3 11 Noroeste 23 Noroeste 0 900.5 -0.6 32
2019-10-07 12:00:00 18.6 4 Sur 9 Sudeste 0 900.9 0.1 36
2019-10-07 11:00:00 13.6 3 Oeste 5 Oeste 0 901 0.4 63
2019-10-07 10:00:00 8.7 2 Sur 5 Sudeste 0 901.1 0.7 86
2019-10-07 09:00:00 4.7 2 Sur 5 Este 0 900.8 0.4 92
2019-10-07 08:00:00 4.6 2 Este 5 Norte 0 900.6 0.2 90
2019-10-07 07:00:00 5.2 2 Sudeste 8 Este 0 900.4 -0.3 90
2019-10-07 06:00:00 5.8 4 Este 8 Este 0 900.4 -0.3 89
2019-10-07 05:00:00 6.3 2 Este 5 Este 0 900.4 -0.4 87
2019-10-07 04:00:00 7.1 0 Calma 4 Sudeste 0 900.7 -0.5 85
2019-10-07 03:00:00 8.1 2 Este 5 Sudeste 0 900.7 -0.6 84
2019-10-07 02:00:00 9.3 3 Este 5 Sudeste 0 900.8 -0.3 80
2019-10-07 01:00:00 11 0 Calma 7 Este 0 901.2 0.7 78
2019-10-07 00:00:00 11.9 5 Norte 10 Norte 0 901.3 1.5 76
2019-10-06 23:00:00 13.1 6 Norte 15 Norte 0 901.1 1.6 69
2019-10-06 22:00:00 14.4 2 Sudeste 6 Sur 0 900.5 1.5 51
2019-10-06 21:00:00 17.3 3 Noroeste 17 Noroeste 0 899.8 1 42
2019-10-06 20:00:00 20.2 5 Noroeste 21 Oeste 0 899.5 0.2 36
2019-10-06 19:00:00 22.3 6 Noroeste 22 Noroeste 0 899 -0.6 37
2019-10-06 18:00:00 22.9 10 Noroeste 20 Noroeste 0 898.8 -1 35
2019-10-06 17:00:00 23.7 10 Oeste 27 Oeste 0 899.3 -1.2 35
2019-10-06 16:00:00 24.2 12 Oeste 23 Noroeste 0 899.6 -1.2 36
2019-10-06 15:00:00 23.4 7 Sudeste 17 Nordeste 0 899.8 -1.4 41
2019-10-06 14:00:00 21.7 5 Oeste 12 Oeste 0 900.5 -1.1 43
2019-10-06 13:00:00 21.2 4 Nordeste 9 Sur 0 900.8 -0.4 43
2019-10-06 12:00:00 18.3 3 Nordeste 7 Sudeste 0 901.2 0.4 51
2019-10-06 11:00:00 12.8 0 Calma 5 Sur 0 901.6 1.7 65
2019-10-06 10:00:00 8.5 3 Sudoeste 7 Sudeste 0 901.2 1.6 75
2019-10-06 09:00:00 4 0 Calma 5 Sudeste 0 900.8 1.3 87
2019-10-06 08:00:00 4 0 Calma 6 Sudeste 0 899.9 0.5 85
2019-10-06 07:00:00 4.4 0 Calma 4 Este 0 899.6 0 84
2019-10-06 06:00:00 5.1 4 Este 8 Sudeste 0 899.5 -0.4 81
2019-10-06 05:00:00 5.4 3 Sur 5 Sur 0 899.4 -0.2 79
2019-10-06 04:00:00 6.3 0 Calma 7 Sudeste 0 899.6 0 76
2019-10-06 03:00:00 7.1 2 Este 5 Este 0 899.9 0.4 72
2019-10-06 02:00:00 7.7 0 Calma 5 Sudeste 0 899.6 0.4 68
2019-10-06 01:00:00 9 2 Este 5 Sudeste 0 899.6 0.8 64
2019-10-06 00:00:00 10.2 0 Calma 5 Sudeste 0 899.5 1.4 61
2019-10-05 23:00:00 11.8 2 Sudeste 8 Norte 0 899.2 1.8 56
2019-10-05 22:00:00 14 2 Este 6 Sudeste 0 898.8 1.8 49
2019-10-05 21:00:00 17.3 2 Este 6 Oeste 0 898.1 1.5 42
2019-10-05 20:00:00 21.4 5 Oeste 13 Oeste 0 897.4 0.8 34
2019-10-05 19:00:00 24.5 7 Oeste 17 Oeste 0 897 0.1 29
2019-10-05 18:00:00 26.6 6 Noroeste 15 Oeste 0 896.6 -0.6 24
2019-10-05 17:00:00 26.6 7 Sudoeste 18 Oeste 0 896.6 -1.1 23
2019-10-05 16:00:00 26.1 7 Noroeste 18 Oeste 0 896.9 -1.2 26
2019-10-05 15:00:00 25.3 6 Oeste 17 Oeste 0 897.2 -1.3 31
2019-10-05 14:00:00 24 6 Oeste 18 Sudoeste 0 897.7 -1.1 38
2019-10-05 13:00:00 22.4 6 Sudoeste 14 Oeste 0 898.1 -0.5 43
2019-10-05 12:00:00 18.6 3 Sudoeste 5 Sur 0 898.5 0.2 53
2019-10-05 11:00:00 13 3 Oeste 5 Oeste 0 898.8 0.8 60
2019-10-05 10:00:00 8.4 2 Sur 5 Sudeste 0 898.6 0.7 73
2019-10-05 09:00:00 3.8 2 Sudeste 4 Sudeste 0 898.3 0.3 86
2019-10-05 08:00:00 3.6 0 Calma 4 Este 0 898 -0.1 83
2019-10-05 07:00:00 4.2 2 Este 4 Este 0 897.9 -0.3 82
2019-10-05 06:00:00 4.8 0 Calma 4 Sudeste 0 898 -0.4 78
2019-10-05 05:00:00 5.5 2 Este 6 Sudeste 0 898.1 -0.1 76
2019-10-05 04:00:00 6.2 0 Calma 4 Este 0 898.2 -0.2 74
2019-10-05 03:00:00 7.2 0 Calma 5 Sudeste 0 898.4 0.1 71
2019-10-05 02:00:00 8.2 0 Calma 8 Sudeste 0 898.2 0 68
2019-10-05 01:00:00 9.2 0 Calma 6 Sudeste 0 898.4 0.5 63
2019-10-05 00:00:00 10.5 3 Sudeste 5 Sudeste 0 898.3 0.7 59
2019-10-04 23:00:00 11.9 2 Este 8 Sudeste 0 898.2 1 55
2019-10-04 22:00:00 14.3 2 Este 5 Este 0 897.9 1.2 48
2019-10-04 21:00:00 17.5 4 Oeste 10 Oeste 0 897.6 1.1 42
2019-10-04 20:00:00 20.9 6 Oeste 19 Oeste 0 897.2 0.7 35
2019-10-04 19:00:00 23.8 10 Oeste 21 Oeste 0 896.7 -0.2 30
2019-10-04 18:00:00 25.8 10 Oeste 26 Oeste 0 896.5 -0.9 24
2019-10-04 17:00:00 26.7 12 Oeste 23 Oeste 0 896.5 -1.7 23
2019-10-04 16:00:00 27 10 Oeste 24 Noroeste 0 896.9 -2 24
2019-10-04 15:00:00 26.5 8 Oeste 20 Oeste 0 897.4 -2.2 25
2019-10-04 14:00:00 24.9 8 Oeste 18 Oeste 0 898.2 -1.9 26
2019-10-04 13:00:00 23 7 Noroeste 14 Noroeste 0 898.9 -1.3 35
2019-10-04 12:00:00 18.3 4 Oeste 6 Oeste 0 899.6 -0.4 44
2019-10-04 11:00:00 12.8 3 Sudoeste 5 Sudeste 0 900.1 0.4 56
2019-10-04 10:00:00 7.6 2 Sudoeste 5 Sur 0 900.2 0.5 71
2019-10-04 09:00:00 3.2 2 Sudeste 4 Este 0 900 0.3 84
2019-10-04 08:00:00 3 0 Calma 6 Sudeste 0 899.7 0 82
2019-10-04 07:00:00 3.6 0 Calma 5 Este 0 899.7 -0.2 78
2019-10-04 06:00:00 4.2 0 Calma 4 Este 0 899.7 -0.6 78
2019-10-04 05:00:00 4.9 0 Calma 6 Sudeste 0 899.7 -0.6 74
2019-10-04 04:00:00 5.4 0 Calma 4 Sudeste 0 899.9 -0.3 72
2019-10-04 03:00:00 6.1 0 Calma 6 Sudeste 0 900.3 0.2 69
2019-10-04 02:00:00 7.1 0 Calma 6 Sudeste 0 900.3 0.4 65
2019-10-04 01:00:00 8.3 0 Calma 8 Este 0 900.2 0.6 61
2019-10-04 00:00:00 9.5 3 Este 8 Sudeste 0 900.1 0.8 57
2019-10-03 23:00:00 11 0 Calma 8 Sudeste 0 899.9 1 52
2019-10-03 22:00:00 13.8 2 Este 12 Oeste 0 899.6 1.2 46
2019-10-03 21:00:00 17.2 6 Oeste 18 Noroeste 0 899.3 1.3 39
2019-10-03 20:00:00 19.6 7 Oeste 27 Oeste 0 898.9 1 33
2019-10-03 19:00:00 22.1 11 Noroeste 28 Noroeste 0 898.4 0.5 30
2019-10-03 18:00:00 24.3 12 Noroeste 31 Noroeste 0 898 -0.2 21
2019-10-03 17:00:00 24.9 10 Noroeste 24 Noroeste 0 897.9 -0.9 19
2019-10-03 16:00:00 24.8 7 Noroeste 23 Norte 0 897.9 -1.4 23
2019-10-03 15:00:00 24 7 Oeste 23 Noroeste 0 898.2 -1.7 23
2019-10-03 14:00:00 22.3 9 Oeste 18 Oeste 0 898.8 -1.4 25
2019-10-03 13:00:00 20.2 5 Sudoeste 14 Sudoeste 0 899.3 -0.8 37
2019-10-03 12:00:00 16.7 3 Sudoeste 8 Oeste 0 899.9 0.2 55
2019-10-03 11:00:00 11.2 2 Sur 5 Sudeste 0 900.2 0.7 67
2019-10-03 10:00:00 6.1 2 Sur 4 Sur 0 900.1 0.7 82
2019-10-03 09:00:00 2 3 Sudeste 5 Sudeste 0 899.7 0.5 91
2019-10-03 08:00:00 2.1 2 Sudeste 6 Sudeste 0 899.5 0.1 89
2019-10-03 07:00:00 2.8 2 Sudeste 7 Este 0 899.4 0 89
2019-10-03 06:00:00 3.4 0 Calma 5 Sur 0 899.2 -0.5 88
2019-10-03 05:00:00 4.1 2 Este 8 Sudeste 0 899.4 -0.8 86
2019-10-03 04:00:00 4.5 2 Este 7 Sudeste 0 899.4 -1.2 85
2019-10-03 03:00:00 5.4 2 Nordeste 12 Este 0 899.7 -1.3 82
2019-10-03 02:00:00 6.3 5 Este 10 Sudeste 0 900.2 -0.2 81
2019-10-03 01:00:00 7.3 3 Norte 9 Norte 0 900.6 0.5 77
2019-10-03 00:00:00 8.5 3 Este 10 Este 0 901 1.6 72
2019-10-02 23:00:00 9.9 3 Nordeste 6 Norte 0 900.4 1.5 69
2019-10-02 22:00:00 11.5 2 Nordeste 9 Norte 0 900.1 1.5 60
2019-10-02 21:00:00 13.8 4 Norte 13 Norte 0 899.4 1.3 54
2019-10-02 20:00:00 16 6 Norte 22 Noroeste 0 898.9 0.6 46
2019-10-02 19:00:00 18.1 12 Norte 26 Norte 0 898.6 0.4 40
2019-10-02 18:00:00 19.8 10 Norte 30 Noroeste 0 898.1 -0.2 37
2019-10-02 17:00:00 21.2 12 Norte 30 Sudoeste 0 898.3 -0.6 36
2019-10-02 16:00:00 20.6 13 Norte 29 Norte 0 898.2 -0.3 36
2019-10-02 15:00:00 19.9 12 Noroeste 31 Norte 0 898.3 -0.1 40
2019-10-02 14:00:00 18.4 10 Norte 31 Noroeste 0 898.9 0.3 45
2019-10-02 13:00:00 17.7 11 Norte 26 Noroeste 0 898.5 0.4 44
2019-10-02 12:00:00 16.1 8 Oeste 23 Noroeste 0 898.4 0.6 49
2019-10-02 11:00:00 13.8 8 Oeste 18 Noroeste 0 898.6 1.5 64
2019-10-02 10:00:00 12.1 12 Oeste 22 Oeste 0 898.1 1.5 74
2019-10-02 09:00:00 9.6 4 Noroeste 14 Oeste 0 897.8 1.4 81
2019-10-02 08:00:00 9.8 8 Oeste 23 Oeste 0 897.1 1 78
2019-10-02 07:00:00 10.4 8 Noroeste 18 Noroeste 0 896.6 0.1 75
2019-10-02 06:00:00 10.8 6 Oeste 15 Noroeste 0 896.4 0.1 71
2019-10-02 05:00:00 11.7 6 Oeste 16 Oeste 0 896.1 -0.4 67
2019-10-02 04:00:00 10.6 5 Oeste 13 Oeste 0 896.5 0.1 72
2019-10-02 03:00:00 11.9 5 Noroeste 12 Oeste 0 896.3 -0.3 68
2019-10-02 02:00:00 10.9 6 Noroeste 11 Noroeste 0 896.5 0.3 75
2019-10-02 01:00:00 12.2 3 Este 12 Oeste 0 896.4 0.7 63
2019-10-02 00:00:00 14.1 4 Noroeste 14 Oeste 0 896.6 1.2 62
2019-10-01 23:00:00 15 5 Oeste 12 Noroeste 0 896.2 1.3 59
2019-10-01 22:00:00 15.3 2 Noroeste 8 Oeste 0 895.7 1.5 55
2019-10-01 21:00:00 18 3 Sudoeste 24 Oeste 0 895.4 1.5 48
2019-10-01 20:00:00 20 10 Noroeste 34 Oeste 0 894.9 1 42
2019-10-01 19:00:00 22.4 10 Noroeste 29 Noroeste 0 894.2 -0.1 36
2019-10-01 18:00:00 24.1 10 Noroeste 28 Oeste 0 893.9 -0.3 33
2019-10-01 17:00:00 25.5 12 Oeste 27 Oeste 0 893.9 -1 25
2019-10-01 16:00:00 25 13 Oeste 27 Oeste 0 894.3 -1 23
2019-10-01 15:00:00 25.9 10 Sudoeste 24 Noroeste 0 894.2 -1.5 24
2019-10-01 14:00:00 25.4 12 Oeste 25 Oeste 0 894.9 -1.4 23
2019-10-01 13:00:00 24.4 12 Oeste 26 Oeste 0 895.3 -0.9 24
2019-10-01 12:00:00 22.2 9 Oeste 20 Noroeste 0 895.7 -0.1 31
2019-10-01 11:00:00 14.9 2 Sudoeste 5 Sudoeste 0 896.3 0.6 51
2019-10-01 10:00:00 9.2 2 Sudoeste 4 Sur 0 896.2 0.5 67
2019-10-01 09:00:00 5.1 0 Calma 4 Este 0 895.8 0 78
2019-10-01 08:00:00 4.2 0 Calma 3 Este 0 895.7 -0.5 77
2019-10-01 07:00:00 4.5 0 Calma 3 Este 0 895.7 -1 77
2019-10-01 06:00:00 5 0 Calma 3 Este 0 895.8 -1.7 74
2019-10-01 05:00:00 5.9 2 Este 4 Sur 0 896.2 -1.3 70
2019-10-01 04:00:00 6.8 2 Sudeste 5 Sur 0 896.7 -1.1 68
2019-10-01 03:00:00 7.5 0 Calma 3 Este 0 897.5 -0.4 65
2019-10-01 02:00:00 8.4 2 Este 4 Este 0 897.5 -0.4 61
2019-10-01 01:00:00 9.5 2 Este 4 Este 0 897.8 -0.1 57
2019-10-01 00:00:00 11.1 2 Este 4 Sudeste 0 897.9 0.5 52
2019-09-30 23:00:00 13 3 Este 7 Este 0 897.9 0.6 47
2019-09-30 22:00:00 15.7 3 Sudeste 5 Sudeste 0 897.9 0.8 40
2019-09-30 21:00:00 18.6 0 Calma 10 Oeste 0 897.4 0.2 35
2019-09-30 20:00:00 22.5 7 Oeste 17 Oeste 0 897.3 -0.2 27
2019-09-30 19:00:00 25.4 10 Oeste 20 Sudoeste 0 897.1 -0.6 21
2019-09-30 18:00:00 27.4 10 Oeste 26 Oeste 0 897.2 -0.9 20
2019-09-30 17:00:00 28.3 11 Sudoeste 23 Oeste 0 897.5 -1.4 17
2019-09-30 16:00:00 28.5 11 Oeste 28 Oeste 0 897.7 -1.9 17
2019-09-30 15:00:00 28.6 10 Sudoeste 30 Sur 0 898.1 -2.1 17
2019-09-30 14:00:00 27.5 6 Sur 12 Sudeste 0 898.9 -1.8 20
2019-09-30 13:00:00 25.2 3 Nordeste 6 Sudoeste 0 899.6 -1.2 30
2019-09-30 12:00:00 20.2 4 Sudoeste 7 Oeste 0 900.2 -0.4 45
2019-09-30 11:00:00 15 2 Sudoeste 4 Sudoeste 0 900.7 0.3 49
2019-09-30 10:00:00 9.6 3 Sudoeste 5 Sur 0 900.8 0.7 66
2019-09-30 09:00:00 5 2 Este 4 Sudeste 0 900.6 0.4 80
2019-09-30 08:00:00 4.3 2 Sur 4 Sudeste 0 900.4 0.2 81
2019-09-30 07:00:00 4.8 0 Calma 4 Este 0 900.1 -0.3 79
2019-09-30 06:00:00 5.4 0 Calma 5 Sudeste 0 900.2 -0.5 77
2019-09-30 05:00:00 5.9 0 Calma 4 Este 0 900.2 -0.5 74
2019-09-30 04:00:00 6.7 2 Este 4 Sudeste 0 900.4 -0.2 71
2019-09-30 03:00:00 7.4 0 Calma 3 Norte 0 900.7 0.1 68
2019-09-30 02:00:00 8.4 2 Este 4 Sudeste 0 900.7 0.1 64
2019-09-30 01:00:00 9.3 0 Calma 4 Sudeste 0 900.6 0.4 60
2019-09-30 00:00:00 10.7 2 Este 5 Sudeste 0 900.6 1.1 56
2019-09-29 23:00:00 12.4 3 Este 6 Sudeste 0 900.6 1.8 50
2019-09-29 22:00:00 14.9 3 Este 8 Este 0 900.2 1.5 43
2019-09-29 21:00:00 18.8 0 Calma 12 Oeste 0 899.5 0.8 36
2019-09-29 20:00:00 22.7 4 Oeste 18 Sudoeste 0 898.8 -0.2 29
2019-09-29 19:00:00 25.5 9 Oeste 24 Sudoeste 0 898.7 -0.5 23
2019-09-29 18:00:00 27.2 10 Oeste 24 Oeste 0 898.7 -0.9 22
2019-09-29 17:00:00 27.7 12 Oeste 27 Oeste 0 899 -1 22
2019-09-29 16:00:00 27.7 13 Oeste 26 Oeste 0 899.2 -1 23
2019-09-29 15:00:00 27.4 12 Oeste 30 Sudoeste 0 899.6 -0.9 24
2019-09-29 14:00:00 27.1 11 Oeste 31 Oeste 0 900 -0.7 25
2019-09-29 13:00:00 25.7 15 Oeste 31 Oeste 0 900.2 -0.4 26
2019-09-29 12:00:00 23 6 Oeste 14 Noroeste 0 900.5 0.1 39
2019-09-29 11:00:00 15.4 3 Sudoeste 6 Sudoeste 0 900.7 0.4 63
2019-09-29 10:00:00 9.2 2 Sudoeste 5 Sur 0 900.6 0.3 67
2019-09-29 09:00:00 4.5 0 Calma 3 Este 0 900.4 0.2 80
2019-09-29 08:00:00 3.6 0 Calma 5 Sudeste 0 900.3 -0.1 80
2019-09-29 07:00:00 3.9 0 Calma 4 Este 0 900.3 -0.4 80
2019-09-29 06:00:00 4.2 0 Calma 3 Este 0 900.2 -0.9 79
2019-09-29 05:00:00 4.9 0 Calma 4 Sudeste 0 900.4 -0.6 75
2019-09-29 04:00:00 5.4 0 Calma 5 Nordeste 0 900.7 -0.5 73
2019-09-29 03:00:00 6.4 0 Calma 5 Sudeste 0 901.1 -0.1 69
2019-09-29 02:00:00 7.2 0 Calma 3 Este 0 901 -0.2 66
2019-09-29 01:00:00 8.5 2 Este 6 Este 0 901.2 0.2 61
2019-09-29 00:00:00 9.8 2 Sudeste 5 Sudeste 0 901.2 0.7 56
2019-09-28 23:00:00 11.8 3 Este 7 Este 0 901.2 1.2 49
2019-09-28 22:00:00 14.5 4 Este 6 Este 0 901 1.1 41
2019-09-28 21:00:00 18 0 Calma 8 Oeste 0 900.5 0.7 35
2019-09-28 20:00:00 22.5 4 Sudoeste 17 Oeste 0 900 0.2 27
2019-09-28 19:00:00 25.3 8 Sudoeste 22 Oeste 0 899.9 -0.5 21
2019-09-28 18:00:00 27.1 9 Oeste 22 Sudoeste 0 899.8 -0.9 20
2019-09-28 17:00:00 27.6 9 Oeste 22 Sudoeste 0 899.8 -1.6 22
2019-09-28 16:00:00 27.3 9 Oeste 23 Oeste 0 900.4 -1.4 22
2019-09-28 15:00:00 27 9 Oeste 23 Sudoeste 0 900.7 -1.5 25
2019-09-28 14:00:00 26.2 9 Sudoeste 21 Sudoeste 0 901.4 -1.1 24
2019-09-28 13:00:00 24.9 7 Norte 14 Nordeste 0 901.8 -0.7 31
2019-09-28 12:00:00 19.9 2 Oeste 5 Oeste 0 902.2 0 41
2019-09-28 11:00:00 14 2 Oeste 5 Oeste 0 902.5 0.6 55
2019-09-28 10:00:00 9.7 3 Oeste 6 Este 0 902.5 0.8 69
2019-09-28 09:00:00 4.4 2 Sudoeste 5 Este 0 902.2 0.6 87
2019-09-28 08:00:00 3.7 2 Este 6 Este 0 901.9 0.1 86
2019-09-28 07:00:00 4.1 2 Este 5 Este 0 901.7 -0.2 84
2019-09-28 06:00:00 4.8 0 Calma 4 Este 0 901.6 -0.5 81
2019-09-28 05:00:00 5.6 2 Sudeste 6 Este 0 901.8 -0.2 79
2019-09-28 04:00:00 6.4 2 Sudeste 6 Sudeste 0 901.9 0.1 76
2019-09-28 03:00:00 7.3 2 Este 5 Este 0 902.1 0.5 73
2019-09-28 02:00:00 8.4 0 Calma 5 Sudeste 0 902 0.7 68
2019-09-28 01:00:00 9.7 2 Este 6 Este 0 901.8 1 64
2019-09-28 00:00:00 11.3 2 Este 7 Este 0 901.6 1.5 59
2019-09-27 23:00:00 13.2 3 Este 6 Este 0 901.3 1.7 54
2019-09-27 22:00:00 15.6 3 Este 6 Este 0 900.8 1.5 49
2019-09-27 21:00:00 18.9 3 Norte 8 Nordeste 0 900.1 1.1 41
2019-09-27 20:00:00 22.4 6 Oeste 17 Oeste 0 899.6 0.7 35
2019-09-27 19:00:00 24.7 9 Oeste 18 Oeste 0 899.3 0.2 28
2019-09-27 18:00:00 26.2 9 Oeste 22 Oeste 0 899 -0.5 26
2019-09-27 17:00:00 26.8 11 Oeste 27 Noroeste 0 898.9 -1 24
2019-09-27 16:00:00 26.7 10 Oeste 28 Oeste 0 899.1 -1.2 30
2019-09-27 15:00:00 26.4 9 Noroeste 23 Sudoeste 0 899.5 -1.4 32
2019-09-27 14:00:00 25.5 8 Oeste 24 Oeste 0 899.9 -1.2 36
2019-09-27 13:00:00 24.1 9 Oeste 17 Oeste 0 900.3 -0.7 39
2019-09-27 12:00:00 21.5 6 Oeste 12 Oeste 0 900.9 -0.2 47
2019-09-27 11:00:00 16.3 5 Oeste 9 Sudoeste 0 901.1 0.1 64
2019-09-27 10:00:00 12.3 2 Sudeste 6 Sudeste 0 901 0.2 74
2019-09-27 09:00:00 7.6 3 Este 5 Este 0 901.1 0.4 88
2019-09-27 08:00:00 7 2 Este 4 Sur 0 901 0.4 88
2019-09-27 07:00:00 7.2 2 Sudeste 5 Sudeste 0 900.8 0.1 87
2019-09-27 06:00:00 7.6 0 Calma 4 Este 0 900.7 -0.2 84
2019-09-27 05:00:00 8.2 0 Calma 3 Sudeste 0 900.6 -0.4 83
2019-09-27 04:00:00 9 0 Calma 3 Este 0 900.7 -0.5 79
2019-09-27 03:00:00 9.8 0 Calma 5 Sudeste 0 900.9 -0.3 76
2019-09-27 02:00:00 10.6 0 Calma 4 Este 0 901 0.1 74
2019-09-27 01:00:00 11.7 0 Calma 5 Sudeste 0 901.2 0.5 69
2019-09-27 00:00:00 12.8 0 Calma 6 Este 0 901.2 1.1 64
2019-09-26 23:00:00 14.3 3 Este 7 Este 0 900.9 1.3 59
2019-09-26 22:00:00 16.5 0 Calma 3 Nordeste 0 900.7 1.3 53
2019-09-26 21:00:00 19.2 0 Calma 9 Oeste 0 900.1 0.8 46
2019-09-26 20:00:00 22.2 6 Oeste 17 Oeste 0 899.6 0.3 38
2019-09-26 19:00:00 24.5 8 Oeste 19 Oeste 0 899.4 0 35
2019-09-26 18:00:00 25.8 10 Oeste 24 Oeste 0 899.3 -0.2 32
2019-09-26 17:00:00 26.5 9 Oeste 25 Oeste 0 899.3 -0.7 32
2019-09-26 16:00:00 26.2 10 Oeste 28 Oeste 0 899.4 -1.1 33
2019-09-26 15:00:00 25.9 7 Oeste 22 Oeste 0 899.5 -1.6 33
2019-09-26 14:00:00 24.9 9 Oeste 22 Oeste 0 900 -1.6 36
2019-09-26 13:00:00 23.1 5 Oeste 10 Noroeste 0 900.5 -0.9 45
2019-09-26 12:00:00 19.8 3 Sur 5 Este 0 901.1 0 47
2019-09-26 11:00:00 14.8 3 Sudoeste 5 Oeste 0 901.6 0.9 63
2019-09-26 10:00:00 10.9 4 Sur 6 Sur 0 901.4 1 78
2019-09-26 09:00:00 6.6 2 Sur 4 Sudeste 0 901.1 0.7 92
2019-09-26 08:00:00 6 0 Calma 5 Este 0 900.7 0.4 89
2019-09-26 07:00:00 6.5 0 Calma 4 Sudeste 0 900.4 0.1 87
2019-09-26 06:00:00 6.9 0 Calma 5 Sudeste 0 900.4 0 87
2019-09-26 05:00:00 7.4 0 Calma 6 Sudeste 0 900.3 -0.1 84
2019-09-26 04:00:00 8.2 0 Calma 5 Sudeste 0 900.3 -0.2 83
2019-09-26 03:00:00 8.9 3 Sudeste 8 Nordeste 0 900.4 0.1 80
2019-09-26 02:00:00 9.7 3 Nordeste 7 Nordeste 0 900.4 0.5 78
2019-09-26 01:00:00 10.7 3 Este 8 Sudeste 0 900.5 0.8 74
2019-09-26 00:00:00 11.9 2 Sudeste 9 Nordeste 0 900.3 1.2 69
2019-09-25 23:00:00 13.1 2 Este 5 Noroeste 0 899.9 1.4 65
2019-09-25 22:00:00 14.9 4 Norte 7 Norte 0 899.7 1.4 58
2019-09-25 21:00:00 16.6 5 Norte 13 Noroeste 0 899.1 1.1 52
2019-09-25 20:00:00 18.1 5 Noroeste 17 Oeste 0 898.5 0.8 47
2019-09-25 19:00:00 19.4 8 Noroeste 23 Norte 0 898.3 0.2 42
2019-09-25 18:00:00 21.1 9 Oeste 24 Oeste 0 898 -0.3 36
2019-09-25 17:00:00 21.9 8 Oeste 23 Oeste 0 897.7 -1 38
2019-09-25 16:00:00 21.6 11 Noroeste 24 Oeste 0 898.1 -1 38
2019-09-25 15:00:00 21.5 10 Noroeste 26 Oeste 0 898.3 -1.1 42
2019-09-25 14:00:00 20.2 8 Oeste 19 Oeste 0 898.7 -1 45
2019-09-25 13:00:00 19.1 8 Noroeste 18 Noroeste 0 899.1 -0.1 50
2019-09-25 12:00:00 17.3 4 Oeste 14 Oeste 0 899.4 0.5 59
2019-09-25 11:00:00 15.4 5 Noroeste 14 Norte 0 899.7 1.5 65
2019-09-25 10:00:00 14.1 5 Noroeste 16 Norte 0 899.2 1.3 69
2019-09-25 09:00:00 12.2 3 Noroeste 6 Noroeste 0 898.9 1.2 78
2019-09-25 08:00:00 12.4 0 Calma 12 Noroeste 0 898.2 0.5 77
2019-09-25 07:00:00 12.3 4 Noroeste 13 Noroeste 0 897.9 0.2 80
2019-09-25 06:00:00 13.7 2 Norte 13 Noroeste 0 897.7 -0.1 74
2019-09-25 05:00:00 15 5 Noroeste 19 Oeste 0 897.7 0 72
2019-09-25 04:00:00 15.4 5 Noroeste 12 Noroeste 0 897.7 -0.3 75
2019-09-25 03:00:00 15.2 0 Calma 7 Este 0 897.8 -0.3 75
2019-09-25 02:00:00 15.8 0 Calma 5 Norte 0 897.7 -0.5 71
2019-09-25 01:00:00 16.9 3 Noroeste 14 Sudoeste 0 898 -0.4 66
2019-09-25 00:00:00 17.7 5 Oeste 9 Sudoeste 0 898.1 0 67
2019-09-24 23:00:00 18.8 3 Sudoeste 6 Sudoeste 0 898.2 0.4 57
2019-09-24 22:00:00 19 3 Oeste 9 Sudoeste 0 898.4 0.8 53
2019-09-24 21:00:00 19.7 4 Sudoeste 15 Oeste 0 898.1 0.6 52
2019-09-24 20:00:00 21.7 9 Oeste 21 Oeste 0 897.8 0 48
2019-09-24 19:00:00 23.5 11 Sudoeste 25 Oeste 0 897.6 -0.5 42
2019-09-24 18:00:00 24.6 11 Sudoeste 31 Oeste 0 897.5 -1.1 40
2019-09-24 17:00:00 25.3 12 Sudoeste 32 Oeste 0 897.8 -1.5 36
2019-09-24 16:00:00 25.2 14 Oeste 31 Sudoeste 0 898.1 -1.6 37
2019-09-24 15:00:00 24.6 14 Oeste 28 Oeste 0 898.6 -1.5 35
2019-09-24 14:00:00 23.8 14 Oeste 31 Oeste 0 899.3 -1.1 35
2019-09-24 13:00:00 22.7 12 Oeste 27 Oeste 0 899.7 -0.4 38
2019-09-24 12:00:00 21 13 Oeste 29 Sudoeste 0 900.1 0.1 42
2019-09-24 11:00:00 18.5 10 Oeste 23 Oeste 0 900.4 0.5 52
2019-09-24 10:00:00 13.5 3 Sudoeste 7 Sudeste 0 900.1 0.4 69
2019-09-24 09:00:00 7.6 2 Este 4 Este 0 900 0.5 94
2019-09-24 08:00:00 6.8 2 Este 5 Este 0 899.9 0 93
2019-09-24 07:00:00 7.1 0 Calma 6 Sur 0 899.7 -0.6 92
2019-09-24 06:00:00 7.1 2 Nordeste 5 Este 0 899.5 -1.3 91
2019-09-24 05:00:00 7.7 0 Calma 4 Nordeste 0 899.9 -1.1 90
2019-09-24 04:00:00 8.2 0 Calma 3 Norte 0 900.3 -1 87
2019-09-24 03:00:00 8.9 0 Calma 5 Sur 0 900.8 -0.8 85
2019-09-24 02:00:00 9.6 0 Calma 5 Sudeste 0 901 -0.6 83
2019-09-24 01:00:00 10.5 2 Este 5 Este 0 901.3 -0.2 79
2019-09-24 00:00:00 11.6 2 Este 4 Sudeste 0 901.6 0.5 75
2019-09-23 23:00:00 13.1 2 Nordeste 5 Sudeste 0 901.6 1 69
2019-09-23 22:00:00 14.7 0 Calma 8 Sudoeste 0 901.5 1.3 61
2019-09-23 21:00:00 16.5 4 Sudoeste 10 Oeste 0 901.1 1 56
2019-09-23 20:00:00 18.6 6 Oeste 16 Oeste 0 900.6 0.7 48
2019-09-23 19:00:00 20 9 Oeste 19 Oeste 0 900.2 0.2 45
2019-09-23 18:00:00 21.2 8 Oeste 21 Oeste 0 900.1 -0.2 42
2019-09-23 17:00:00 21.5 10 Oeste 23 Oeste 0 899.9 -0.7 41
2019-09-23 16:00:00 22.4 9 Oeste 21 Oeste 0 900 -0.9 41
2019-09-23 15:00:00 20.9 5 Oeste 21 Oeste 0 900.3 -1 42
2019-09-23 14:00:00 19.7 7 Oeste 16 Oeste 0 900.6 -0.9 51
2019-09-23 13:00:00 18.5 7 Oeste 14 Oeste 0 900.9 -0.7 50
2019-09-23 12:00:00 16.8 3 Sur 7 Sudoeste 0 901.3 0 53
2019-09-23 11:00:00 13.3 3 Oeste 5 Sur 0 901.5 0.8 75
2019-09-23 10:00:00 9.6 2 Sur 4 Sur 0 901.6 1.4 84
2019-09-23 09:00:00 5.5 0 Calma 4 Este 0 901.3 1.3 97
2019-09-23 08:00:00 5 0 Calma 5 Sudeste 0 900.7 1.2 94
2019-09-23 07:00:00 5.4 0 Calma 4 Sudeste 0 900.2 0.9 93
2019-09-23 06:00:00 6 0 Calma 4 Sudeste 0 900 0.6 92
2019-09-23 05:00:00 6.7 0 Calma 5 Sudeste 0 899.5 0.3 90
2019-09-23 04:00:00 7.6 3 Este 5 Sudeste 0 899.3 0.3 90
2019-09-23 03:00:00 8.7 3 Este 6 Sudeste 0 899.4 0.4 87
2019-09-23 02:00:00 10.3 0 Calma 4 Sudeste 0 899.2 0.5 85
2019-09-23 01:00:00 11.7 3 Sudeste 4 Este 0 899 1.1 82
2019-09-23 00:00:00 12.1 2 Sudeste 5 Sudeste 0 899 1.7 80
2019-09-22 23:00:00 12.6 0 Calma 7 Sudeste 0 898.7 2.1 76
2019-09-22 22:00:00 13.9 3 Este 5 Sudeste 0 897.9 2 70
2019-09-22 21:00:00 15.2 0 Calma 7 Oeste 0 897.3 1.9 61
2019-09-22 20:00:00 16.8 5 Norte 19 Noroeste 0 896.6 1.4 54
2019-09-22 19:00:00 19.3 5 Noroeste 25 Oeste 0 895.9 0.7 52
2019-09-22 18:00:00 21.2 13 Oeste 26 Sudoeste 0 895.4 -0.1 36
2019-09-22 17:00:00 21.2 9 Oeste 29 Sudoeste 0 895.2 -0.4 47
2019-09-22 16:00:00 20.2 10 Oeste 26 Oeste 0 895.2 0.2 58
2019-09-22 15:00:00 18.3 8 Oeste 19 Oeste 0 895.5 0 79
2019-09-22 14:00:00 16.1 11 Oeste 25 Oeste 2 895.6 0.1 89
2019-09-22 13:00:00 19.5 16 Oeste 32 Oeste 0 895 0.1 58
2019-09-22 12:00:00 19.4 14 Sudoeste 32 Sudoeste 0 895.5 1.1 61
2019-09-22 11:00:00 17.5 11 Sudoeste 24 Oeste 0 895.5 1.6 72
2019-09-22 10:00:00 16.3 9 Sudoeste 24 Sudoeste 0 894.9 1.2 81
2019-09-22 09:00:00 15.8 7 Sudoeste 19 Sudoeste 0 894.4 0.8 80
2019-09-22 08:00:00 15.5 8 Oeste 24 Sudoeste 0 893.9 0.2 82
2019-09-22 07:00:00 15.2 11 Oeste 30 Oeste 0 893.7 -0.4 83
2019-09-22 06:00:00 15.4 9 Sudoeste 28 Sudoeste 0 893.6 -0.6 81
2019-09-22 05:00:00 15.7 8 Sudoeste 20 Oeste 0 893.7 -0.5 80
2019-09-22 04:00:00 16.1 8 Sudoeste 20 Oeste 0 894.1 -0.2 77
2019-09-22 03:00:00 16.4 6 Sudoeste 20 Sudoeste 0 894.2 -0.2 77
2019-09-22 02:00:00 16.8 6 Sudoeste 25 Sudoeste 0 894.2 -0.2 77
2019-09-22 01:00:00 17.1 5 Sudoeste 16 Sur 0 894.3 -0.2 77
2019-09-22 00:00:00 17.2 9 Sudoeste 21 Sudoeste 0 894.4 0 76
2019-09-21 23:00:00 16.7 3 Oeste 8 Sur 0 894.4 -0.1 78
2019-09-21 22:00:00 17.1 2 Sudeste 18 Sudoeste 0 894.5 0.4 71
2019-09-21 21:00:00 17.9 8 Sudoeste 19 Sudoeste 0 894.4 0.4 69
2019-09-21 20:00:00 18.8 8 Sudoeste 23 Sudoeste 0 894.5 0.5 64
2019-09-21 19:00:00 19.9 9 Sudoeste 28 Sur 0 894.1 -0.2 57
2019-09-21 18:00:00 20.5 12 Sudoeste 30 Oeste 0 894 -0.8 52
2019-09-21 17:00:00 20.9 8 Sudoeste 31 Sudoeste 0 894 -1.1 54
2019-09-21 16:00:00 21.8 17 Sudoeste 33 Sur 0 894.3 -1.1 50
2019-09-21 15:00:00 20.9 13 Sudoeste 32 Sur 0 894.8 -0.6 52
2019-09-21 14:00:00 20.3 14 Sudoeste 30 Oeste 0 895.1 -0.2 54
2019-09-21 13:00:00 20.8 14 Sudoeste 29 Sur 0 895.4 0 57
2019-09-21 12:00:00 20.2 10 Sudoeste 26 Sudoeste 0 895.4 0 58
2019-09-21 11:00:00 18.1 10 Sudoeste 22 Sudoeste 0 895.3 0.1 67
2019-09-21 10:00:00 15.8 7 Noroeste 14 Noroeste 0 895.4 0.1 78
2019-09-21 09:00:00 12.9 0 Calma 7 Sudeste 0 895.4 -0.1 86
2019-09-21 08:00:00 12.9 2 Noroeste 7 Sur 0 895.2 -0.1 84
2019-09-21 07:00:00 13.9 2 Norte 7 Sudoeste 0 895.3 -0.6 79
2019-09-21 06:00:00 14.2 3 Este 8 Noroeste 0 895.5 -0.4 80
2019-09-21 05:00:00 14.8 4 Sur 20 Sur 0 895.3 -0.5 77
2019-09-21 04:00:00 15.8 8 Sur 21 Sur 0 895.9 -0.7 68
2019-09-21 03:00:00 15.7 3 Este 13 Sudeste 0 895.9 -0.5 72
2019-09-21 02:00:00 15.8 2 Este 5 Sudoeste 0 895.8 -0.6 78
2019-09-21 01:00:00 15.9 0 Calma 6 Sur 0 896.6 -0.4 79
2019-09-21 00:00:00 16.4 0 Calma 9 Este 0 896.4 -0.1 75
2019-09-20 23:00:00 17.7 4 Sudeste 18 Sudeste 0 896.4 0.3 69
2019-09-20 22:00:00 18.7 9 Sur 21 Sudeste 0 897 1 65
2019-09-20 21:00:00 19 6 Sudeste 24 Sudeste 0 896.5 0.7 63
2019-09-20 20:00:00 20.6 10 Sudeste 23 Sudeste 0 896.1 0.2 56
2019-09-20 19:00:00 22 13 Sudeste 30 Sudeste 0 896 -0.3 49
2019-09-20 18:00:00 23.7 16 Sudeste 31 Sudeste 0 895.8 -0.9 46
2019-09-20 17:00:00 24.4 12 Sudeste 27 Sudeste 0 895.9 -1.4 42
2019-09-20 16:00:00 25.1 12 Sudeste 26 Sudeste 0 896.3 -1.7 40
2019-09-20 15:00:00 24.3 5 Sur 20 Sur 0 896.7 -1.6 42
2019-09-20 14:00:00 25 4 Nordeste 20 Este 0 897.3 -1.6 45
2019-09-20 13:00:00 22.9 5 Este 17 Este 0 898 -1.2 52
2019-09-20 12:00:00 22.6 4 Sudeste 12 Este 0 898.3 -0.6 53
2019-09-20 11:00:00 16.6 3 Oeste 5 Oeste 0 898.9 0.2 80
2019-09-20 10:00:00 13 0 Calma 6 Sur 0 899.2 0.8 90
2019-09-20 09:00:00 10 0 Calma 5 Sur 0 898.9 0.4 96
2019-09-20 08:00:00 9.1 0 Calma 4 Este 0 898.7 -0.1 95
2019-09-20 07:00:00 9.2 0 Calma 3 Este 0 898.4 -0.7 94
2019-09-20 06:00:00 9.8 0 Calma 6 Sudeste 0 898.5 -0.8 93
2019-09-20 05:00:00 10.3 3 Este 4 Este 0 898.8 -0.4 92
2019-09-20 04:00:00 10.9 0 Calma 6 Este 0 899.1 -0.2 91
2019-09-20 03:00:00 11.9 2 Este 4 Sudeste 0 899.3 -0.3 91
2019-09-20 02:00:00 12.8 0 Calma 5 Este 0 899.2 -0.6 91
2019-09-20 01:00:00 13.8 0 Calma 8 Este 0 899.3 -0.2 87
2019-09-20 00:00:00 14.8 3 Este 6 Sudeste 0 899.6 0.9 87
2019-09-19 23:00:00 15.9 0 Calma 9 Sudeste 0 899.8 1.8 82
2019-09-19 22:00:00 16.7 3 Este 6 Este 0 899.5 2.3 74
2019-09-19 21:00:00 17.5 6 Sudeste 35 Sur 0 898.7 1.6 66
2019-09-19 20:00:00 20.7 5 Sudeste 19 Este 0 898 0.7 66
2019-09-19 19:00:00 23.5 8 Este 15 Este 0 897.2 -0.3 47
2019-09-19 18:00:00 25.3 4 Nordeste 17 Oeste 0 897.1 -1 38
2019-09-19 17:00:00 26.4 4 Sur 18 Norte 0 897.3 -1.3 37
2019-09-19 16:00:00 26.4 5 Nordeste 22 Oeste 0 897.5 -1.5 35
2019-09-19 15:00:00 25.9 8 Sudoeste 15 Sur 0 898.1 -1.4 37
2019-09-19 14:00:00 23.8 4 Sur 13 Oeste 0 898.6 -1.1 45
2019-09-19 13:00:00 23.1 2 Nordeste 11 Noroeste 0 899 -0.6 47
2019-09-19 12:00:00 19.8 3 Sudoeste 6 Sudoeste 0 899.5 0.1 65
2019-09-19 11:00:00 16 3 Sur 5 Sur 0 899.7 0.5 78
2019-09-19 10:00:00 12.2 2 Sur 4 Sur 0 899.6 0.5 89
2019-09-19 09:00:00 9 2 Sudeste 4 Sudeste 0 899.4 0.5 97
2019-09-19 08:00:00 8.2 2 Este 5 Sudeste 0 899.2 0.2 94
2019-09-19 07:00:00 8.4 0 Calma 5 Sudeste 0 899.1 0 93
2019-09-19 06:00:00 8.8 0 Calma 3 Este 0 898.9 -0.4 92
2019-09-19 05:00:00 9.4 0 Calma 4 Nordeste 0 899 -0.5 92
2019-09-19 04:00:00 10.1 3 Este 5 Sudeste 0 899.1 -0.4 92
2019-09-19 03:00:00 10.9 0 Calma 4 Sudeste 0 899.3 -0.3 89
2019-09-19 02:00:00 11.7 2 Este 3 Nordeste 0 899.5 0 86
2019-09-19 01:00:00 12.9 2 Este 7 Este 0 899.5 0.2 84
2019-09-19 00:00:00 14.2 2 Este 8 Este 0 899.6 0.8 80
2019-09-18 23:00:00 15.4 0 Calma 5 Este 0 899.5 1.3 76
2019-09-18 22:00:00 16.9 0 Calma 7 Este 0 899.3 1.8 71
2019-09-18 21:00:00 19.4 2 Nordeste 14 Norte 0 898.8 1.5 63
2019-09-18 20:00:00 22 7 Norte 14 Sur 0 898.2 0.7 53
2019-09-18 19:00:00 23.6 13 Este 24 Nordeste 0 897.5 -0.5 44
2019-09-18 18:00:00 24.3 8 Oeste 19 Norte 0 897.3 -1.2 42
2019-09-18 17:00:00 23.3 7 Noroeste 17 Oeste 0 897.5 -1.2 47
2019-09-18 16:00:00 23.6 4 Oeste 16 Sudoeste 0 898 -0.8 46
2019-09-18 15:00:00 22.7 5 Noroeste 22 Oeste 0 898.5 -0.5 48
2019-09-18 14:00:00 22.1 5 Oeste 15 Oeste 0 898.7 -0.3 50
2019-09-18 13:00:00 21.1 6 Oeste 10 Oeste 0 898.8 0.1 60
2019-09-18 12:00:00 17.9 4 Oeste 7 Oeste 0 899 0.4 72
2019-09-18 11:00:00 15 3 Oeste 6 Oeste 0 899 0.8 78
2019-09-18 10:00:00 13 2 Sudeste 5 Sur 0 898.7 0.9 85
2019-09-18 09:00:00 10.2 4 Sur 5 Sur 0 898.6 1.1 99
2019-09-18 08:00:00 9.3 2 Nordeste 4 Este 0 898.2 0.6 98
2019-09-18 07:00:00 9.2 0 Calma 5 Nordeste 0 897.8 0 96
2019-09-18 06:00:00 9.6 0 Calma 6 Este 0.2 897.5 -0.9 94
2019-09-18 05:00:00 10.5 0 Calma 6 Norte 0 897.6 -1.2 93
2019-09-18 04:00:00 11.3 0 Calma 7 Norte 0 897.8 -0.9 93
2019-09-18 03:00:00 12.5 3 Sudeste 9 Oeste 0 898.4 -0.4 92
2019-09-18 02:00:00 13.5 3 Oeste 8 Noroeste 0 898.8 -0.2 91
2019-09-18 01:00:00 14.4 0 Calma 6 Sur 0 898.7 -1.2 90
2019-09-18 00:00:00 14.9 0 Calma 7 Sur 0 898.8 -0.4 91
2019-09-17 23:00:00 14.8 2 Sudoeste 18 Norte 1.4 899 2.5 88
2019-09-17 22:00:00 15.4 6 Noroeste 27 Oeste 2.4 899.9 3.3 82
2019-09-17 21:00:00 17.8 9 Sudoeste 40 Sudoeste 1.8 899.2 2.8 74